Terminal Aerodrome Forecast
Issued by NWS

Home | Current Version | Previous Version | Text Only | Print | Product List | Glossary On
Versions: 1 2 3 4 5 6 7 8 9 10 11 12 13 14 15 16 17 18 19 20 21 22 23 24
000
FTUS45 KBOU 141030 AAB
TAFBJC
TAF AMD
KBJC 141030Z 1411/1506 33008KT 4SM -SN BR BKN015 OVC030
     FM141100 33009KT P6SM SCT013 OVC050
     FM141300 30007KT P6SM SCT015 BKN070
     FM141500 30008KT P6SM SCT050
     FM141700 28010KT P6SM SCT080 SCT120
     FM142200 23007KT P6SM FEW100 SCT150=

USA.gov is the U.S. government's official web portal to all federal, state and local government web resources and services.